Flight Track Log - Related Links

Times and Time Zones

All times are in EDT time to prevent confusion due to time zone crossing. See the UAL1208 flight status page for this flight to view local times or setup timezone preferences in your user account.

Time Position Orientation Groundspeed Altitude Reporting Facility
EDT Latitude Longitude Course Direction KTS MPH feet Rate Location/Type
Fri 07:06:35 PM 37.6333 -122.3500 67° East 185 213 1,200  Level Northern Cal TRACON
Fri 07:07:35 PM 37.6833 -122.3000 38° Northeast 230 265 3,500 2,090 Climbing Northern Cal TRACON
Fri 07:08:04 PM 37.7031 -122.2719 48° Northeast 235 270 4,300 2,667 Climbing Oakland Center
Fri 07:09:00 PM 37.6448 -122.2710 72° East  Level FlightAware Approximate
Fri 07:09:05 PM 37.7542 -122.2047 46° Northeast 260 299 7,500  Level Oakland Center
Fri 07:10:00 PM 37.6960 -122.1247 58° Northeast  Level FlightAware Approximate
Fri 07:10:08 PM 37.7786 -122.1089 72° East 287 330 10,300  Level Oakland Center
Fri 07:11:00 PM 37.7419 -121.9744 67° East  Level FlightAware Approximate
Fri 07:11:08 PM 37.8075 -122.0047 71° East 312 359 12,200  Level Oakland Center
Fri 07:12:09 PM 37.8389 -121.8853 72° East 352 405 14,000 1,820 Climbing Oakland Center
Fri 07:13:10 PM 37.8750 -121.7528 71° East 393 452 15,900 2,341 Climbing Oakland Center
Fri 07:14:12 PM 37.9125 -121.6169 71° East 408 470 18,800 2,634 Climbing Oakland Center
Fri 07:15:13 PM 37.9536 -121.4583 72° East 413 475 21,300 2,066 Climbing Oakland Center
Fri 07:16:14 PM 37.9919 -121.3158 71° East 426 490 23,000 1,672 Climbing Oakland Center
Fri 07:17:15 PM 38.0300 -121.1694 72° East 438 504 24,700 1,463 Climbing Oakland Center
Fri 07:18:17 PM 38.0700 -121.0189 71° East 450 518 26,000 1,268 Climbing Oakland Center
Fri 07:19:18 PM 38.1083 -120.8639 73° East 463 533 27,300 1,180 Climbing Oakland Center
Fri 07:20:19 PM 38.1469 -120.7031 73° East 475 547 28,400 1,268 Climbing Oakland Center
Fri 07:21:21 PM 38.1936 -120.5072 73° East 485 558 29,900 1,268 Climbing Oakland Center
Fri 07:22:22 PM 38.2325 -120.3433 73° East 487 560 31,000 1,082 Climbing Oakland Center
Fri 07:23:23 PM 38.2725 -120.1756 73° East 497 572 32,100 1,073 Climbing Oakland Center
Fri 07:24:25 PM 38.3128 -120.0083 73° East 496 571 33,200 1,024 Climbing Oakland Center
Fri 07:25:26 PM 38.3531 -119.8389 73° East 498 573 34,200 878 Climbing Oakland Center
Fri 07:26:28 PM 38.3914 -119.6694 74° East 500 575 35,000 390 Climbing Oakland Center
Fri 07:27:29 PM 38.4275 -119.4975 75° East 501 577 35,000 246 Level Oakland Center
Fri 07:28:30 PM 38.4675 -119.3297 73° East 499 574 35,500 683 Climbing Oakland Center
Fri 07:29:32 PM 38.5078 -119.1247 76° East 498 573 36,400 732 Climbing Oakland Center
Fri 07:30:33 PM 38.5261 -118.9489 82° East 502 578 37,000 295 Climbing Oakland Center
Fri 07:31:34 PM 38.5439 -118.7700 83° East 508 585 37,000  Level Oakland Center
Fri 07:32:36 PM 38.5606 -118.5917 83° East 510 587 37,000  Level Oakland Center
Fri 07:33:37 PM 38.5781 -118.4147 83° East 507 583 37,000  Level Oakland Center
Fri 07:34:39 PM 38.5953 -118.2350 83° East 510 587 37,000  Level Oakland Center
Fri 07:35:40 PM 38.6128 -118.0383 83° East 511 588 37,000  Level Oakland Center
Fri 07:36:41 PM 38.6311 -117.8578 83° East 510 587 37,000  Level Oakland Center
Fri 07:37:43 PM 38.6461 -117.6761 84° East 511 588 37,000  Level Oakland Center
Fri 07:38:44 PM 38.6625 -117.4947 83° East 510 587 37,000  Level Oakland Center
Fri 07:39:45 PM 38.6778 -117.3136 84° East 509 586 37,000  Level Oakland Center
Fri 07:40:47 PM 38.7044 -117.1333 79° East 512 589 37,000  Level Oakland Center
Fri 07:41:48 PM 38.7314 -116.9525 79° East 513 590 37,000  Level Oakland Center
Fri 07:42:51 PM 38.7631 -116.7342 79° East 516 594 37,000  Level Salt Lake Center
Fri 07:43:53 PM 38.7894 -116.5517 79° East 519 597 37,000  Level Salt Lake Center
Fri 07:44:55 PM 38.8156 -116.3689 80° East 520 598 37,000  Level Salt Lake Center
Fri 07:45:56 PM 38.8419 -116.1836 80° East 526 605 37,000  Level Salt Lake Center
Fri 07:46:58 PM 38.8872 -116.0089 72° East 517 595 37,000  Level Salt Lake Center
Fri 07:48:00 PM 38.9328 -115.8317 72° East 522 601 37,000  Level Salt Lake Center
Fri 07:49:01 PM 38.9828 -115.6558 70° East 522 601 37,000  Level Salt Lake Center
Fri 07:50:03 PM 39.0300 -115.4794 71° East 523 602 37,000  Level Salt Lake Center
Fri 07:51:05 PM 39.0825 -115.2919 70° East 525 604 37,000  Level Salt Lake Center
Fri 07:52:07 PM 39.1292 -115.1164 71° East 521 600 37,000  Level Salt Lake Center
Fri 07:53:09 PM 39.1772 -114.9339 71° East 520 598 37,000  Level Salt Lake Center
Fri 07:54:10 PM 39.2206 -114.7339 74° East 520 598 37,000  Level Salt Lake Center
Fri 07:55:12 PM 39.2483 -114.5586 78° East 522 601 37,000  Level Salt Lake Center
Fri 07:56:14 PM 39.2800 -114.3550 79° East 528 608 37,000  Level Salt Lake Center
Fri 07:57:15 PM 39.3097 -114.1672 78° East 532 612 37,000  Level Salt Lake Center
Fri 07:58:17 PM 39.3367 -113.9819 79° East 527 606 37,000  Level Salt Lake Center
Fri 07:59:19 PM 39.3639 -113.7967 79° East 525 604 37,000  Level Salt Lake Center
Fri 08:00:20 PM 39.3903 -113.6106 80° East 526 605 37,000  Level Salt Lake Center
Fri 08:01:22 PM 39.4228 -113.3892 79° East 523 602 37,000  Level Salt Lake Center
Fri 08:02:24 PM 39.4486 -113.2064 80° East 519 597 37,000  Level Salt Lake Center
Fri 08:03:25 PM 39.4747 -113.0239 79° East 518 596 37,000  Level Salt Lake Center
Fri 08:04:27 PM 39.5000 -112.8389 80° East 521 600 37,000  Level Salt Lake Center
Fri 08:05:29 PM 39.5247 -112.6522 80° East 525 604 37,000  Level Salt Lake Center
Fri 08:06:30 PM 39.5542 -112.4489 79° East 523 602 37,000  Level Salt Lake Center
Fri 08:07:32 PM 39.5783 -112.2631 80° East 526 605 37,000  Level Salt Lake Center
Fri 08:08:34 PM 39.6025 -112.0800 80° East 522 601 37,000  Level Salt Lake Center
Fri 08:09:35 PM 39.6275 -111.8961 80° East 521 600 37,000  Level Salt Lake Center
Fri 08:10:37 PM 39.6506 -111.7111 81° East 521 600 37,000  Level Salt Lake Center
Fri 08:11:39 PM 39.6742 -111.5247 81° East 524 603 37,000  Level Salt Lake Center
Fri 08:12:40 PM 39.7008 -111.3028 81° East 523 602 37,000  Level Salt Lake Center
Fri 08:13:42 PM 39.7247 -111.1178 80° East 520 598 37,000  Level Salt Lake Center
Fri 08:14:44 PM 39.7450 -110.9378 82° East 524 603 37,000  Level Salt Lake Center
Fri 08:15:46 PM 39.7711 -110.7294 81° East 523 602 37,000  Level Salt Lake Center
Fri 08:16:47 PM 39.7911 -110.5508 82° East 523 602 37,000  Level Salt Lake Center
Fri 08:17:49 PM 39.8122 -110.3733 81° East 520 598 37,000  Level Salt Lake Center
Fri 08:18:51 PM 39.8356 -110.1664 82° East 518 596 37,000  Level Salt Lake Center
Fri 08:19:52 PM 39.8553 -109.9897 82° East 515 593 37,000  Level Salt Lake Center
Fri 08:20:54 PM 39.8789 -109.7842 81° East 513 590 37,000  Level Salt Lake Center
Fri 08:21:56 PM 39.8969 -109.6078 82° East 513 590 37,000  Level Salt Lake Center
Fri 08:22:50 PM 39.9158 -109.4292 82° East 515 593 37,000  Level Denver Center
Fri 08:23:52 PM 39.9358 -109.2525 82° East 514 592 37,000  Level Denver Center
Fri 08:24:53 PM 39.9569 -109.0456 82° East 514 592 37,000  Level Denver Center
Fri 08:25:55 PM 39.9756 -108.8681 82° East 514 592 37,000  Level Denver Center
Fri 08:26:57 PM 39.9942 -108.6900 82° East 513 590 37,000  Level Denver Center
Fri 08:27:59 PM 40.0139 -108.4833 83° East 511 588 37,000  Level Denver Center
Fri 08:29:00 PM 40.0303 -108.3075 83° East 508 585 37,000  Level Denver Center
Fri 08:30:02 PM 40.0500 -108.1036 83° East 506 582 37,000  Level Denver Center
Fri 08:31:04 PM 40.0675 -107.9283 83° East 507 583 37,000  Level Denver Center
Fri 08:32:06 PM 40.1053 -107.7603 74° East 504 580 37,000  Level Denver Center
Fri 08:33:07 PM 40.1503 -107.5636 73° East 506 582 37,000  Level Denver Center
Fri 08:34:09 PM 40.1889 -107.3950 73° East 505 581 37,000  Level Denver Center
Fri 08:35:11 PM 40.2342 -107.1981 73° East 507 583 37,000  Level Denver Center
Fri 08:36:13 PM 40.2722 -107.0286 74° East 507 583 37,000  Level Denver Center
Fri 08:37:26 PM 40.3122 -106.8503 74° East 506 582 37,000  Level Denver Center
Fri 08:38:28 PM 40.3603 -106.6386 73° East 503 579 37,000  Level Denver Center
Fri 08:39:30 PM 40.4031 -106.4406 74° East 498 573 37,000  Level Denver Center
Fri 08:40:32 PM 40.4386 -106.2742 74° East 496 571 37,000  Level Denver Center
Fri 08:41:33 PM 40.4772 -106.0989 74° East 494 568 37,000  Level Denver Center
Fri 08:42:35 PM 40.5153 -105.9247 74° East 492 566 37,000  Level Denver Center
Fri 08:43:37 PM 40.5511 -105.7500 75° East 490 564 37,000  Level Denver Center
Fri 08:44:38 PM 40.5883 -105.5731 74° East 497 572 37,000  Level Denver Center
Fri 08:45:40 PM 40.6303 -105.3683 75° East 492 566 37,000  Level Denver Center
Fri 08:46:42 PM 40.6656 -105.1917 75° East 493 567 37,000  Level Denver Center
Fri 08:47:43 PM 40.7019 -105.0183 74° East 486 559 37,000  Level Denver Center
Fri 08:48:45 PM 40.7381 -104.8431 75° East 488 562 37,000  Level Denver Center
Fri 08:49:47 PM 40.7736 -104.6700 75° East 479 551 37,000  Level Denver Center
Fri 08:50:48 PM 40.8083 -104.4939 75° East 487 560 37,000  Level Denver Center
Fri 08:51:50 PM 40.8417 -104.3192 76° East 488 562 37,000  Level Denver Center
Fri 08:52:52 PM 40.8767 -104.1425 75° East 492 566 37,000  Level Denver Center
Fri 08:53:54 PM 40.9103 -103.9683 76° East 486 559 37,000  Level Denver Center
Fri 08:54:55 PM 40.9436 -103.7906 76° East 492 566 37,000  Level Denver Center
Fri 08:55:57 PM 40.9783 -103.6158 75° East 487 560 37,000  Level Denver Center
Fri 08:56:59 PM 41.0122 -103.4325 76° East 489 563 37,000  Level Denver Center
Fri 08:58:13 PM 41.0475 -103.2411 76° East 482 555 37,000  Level Denver Center
Fri 08:59:15 PM 41.0875 -103.0253 76° East 475 547 37,000  Level Denver Center
Fri 09:00:17 PM 41.1072 -102.8608 81° East 475 547 37,000  Level Denver Center
Fri 09:01:19 PM 41.1194 -102.6947 84° East 475 547 37,000  Level Denver Center
Fri 09:02:21 PM 41.1339 -102.5017 84° East 472 543 37,000  Level Denver Center
Fri 09:03:23 PM 41.1467 -102.3364 84° East 470 541 37,000  Level Denver Center
Fri 09:04:25 PM 41.1608 -102.1447 84° East 468 539 37,000 146 Level Denver Center
Fri 09:05:26 PM 41.1722 -101.9803 85° East 467 537 37,300 585 Climbing Denver Center
Fri 09:06:28 PM 41.1864 -101.7942 84° East 457 526 38,200 677 Climbing Denver Center
Fri 09:07:30 PM 41.1975 -101.6314 85° East 462 532 38,700 387 Climbing Denver Center
Fri 09:08:32 PM 41.2103 -101.4433 85° East 456 525 39,000 145 Climbing Denver Center
Fri 09:09:34 PM 41.2214 -101.2839 85° East 451 519 39,000  Level Denver Center
Fri 09:10:36 PM 41.2317 -101.1225 85° East 456 525 39,000  Level Denver Center
Fri 09:11:38 PM 41.2439 -100.9342 85° East 455 524 39,000  Level Denver Center
Fri 09:12:40 PM 41.2542 -100.7700 85° East 462 532 39,000  Level Denver Center
Fri 09:13:42 PM 41.2653 -100.5794 86° East 461 531 39,000  Level Denver Center
Fri 09:14:44 PM 41.2750 -100.4169 85° East 459 528 39,000  Level Denver Center
Fri 09:15:46 PM 41.2856 -100.2275 86° East 459 528 39,000  Level Denver Center
Fri 09:16:48 PM 41.2950 -100.0656 86° East 458 527 39,000  Level Denver Center
Fri 09:17:50 PM 41.3036 -99.9039 86° East 457 526 39,000  Level Denver Center
Fri 09:18:52 PM 41.3136 -99.7150 86° East 457 526 39,000  Level Denver Center
Fri 09:19:54 PM 41.3217 -99.5531 86° East 458 527 39,000  Level Denver Center
Fri 09:20:56 PM 41.3314 -99.3597 86° East 458 527 39,000  Level Denver Center
Fri 09:21:57 PM 41.3397 -99.1908 86° East 456 525 39,000  Level Denver Center
Fri 09:22:59 PM 41.3472 -99.0200 87° East 458 527 39,000  Level Denver Center
Fri 09:24:13 PM 41.3558 -98.8494 86° East 456 525 39,000  Level Denver Center
Fri 09:25:00 PM 41.3611 -98.7083 87° East 456 525 39,000  Level Minneapolis Center
Fri 09:26:02 PM 41.3694 -98.5078 87° East 454 522 39,000  Level Minneapolis Center
Fri 09:27:04 PM 41.3758 -98.3403 87° East 455 524 39,000  Level Minneapolis Center
Fri 09:28:18 PM 41.3811 -98.1739 88° East 452 520 39,000  Level Minneapolis Center
Fri 09:29:20 PM 41.3864 -98.0122 87° East 446 513 39,000  Level Minneapolis Center
Fri 09:30:22 PM 41.3928 -97.8181 87° East 440 506 39,000  Level Minneapolis Center
Fri 09:31:23 PM 41.3964 -97.6531 88° East 444 511 39,000  Level Minneapolis Center
Fri 09:32:25 PM 41.4019 -97.4556 88° East 444 511 39,000  Level Minneapolis Center
Fri 09:33:27 PM 41.4069 -97.2906 88° East 445 512 39,000  Level Minneapolis Center
Fri 09:34:29 PM 41.4103 -97.1264 88° East 444 511 39,000  Level Minneapolis Center
Fri 09:35:30 PM 41.4142 -96.9622 88° East 444 511 39,000  Level Minneapolis Center
Fri 09:36:32 PM 41.4175 -96.7983 88° East 442 509 39,000  Level Minneapolis Center
Fri 09:37:34 PM 41.4211 -96.6361 88° East 440 506 39,000  Level Minneapolis Center
Fri 09:38:35 PM 41.4239 -96.4742 89° East 436 502 39,000  Level Minneapolis Center
Fri 09:39:37 PM 41.4258 -96.3072 89° East 440 506 39,000  Level Minneapolis Center
Fri 09:40:38 PM 41.4283 -96.1131 89° East 435 501 39,000  Level Minneapolis Center
Fri 09:41:40 PM 41.4303 -95.9525 89° East 433 498 39,000  Level Minneapolis Center
Fri 09:42:42 PM 41.4331 -95.7897 89° East 436 502 39,000  Level Minneapolis Center
Fri 09:43:43 PM 41.4342 -95.6186 89° East 437 503 39,000  Level Minneapolis Center
Fri 09:44:45 PM 41.4353 -95.4550 89° East 441 507 39,000  Level Minneapolis Center
Fri 09:45:46 PM 41.4364 -95.2900 89° East 444 511 39,000  Level Minneapolis Center
Fri 09:46:48 PM 41.4383 -95.1250 89° East 448 516 39,000  Level Minneapolis Center
Fri 09:47:50 PM 41.4389 -94.9603 90° East 444 511 39,000  Level Minneapolis Center
Fri 09:48:51 PM 41.4394 -94.7997 90° East 438 504 39,000  Level Minneapolis Center
Fri 09:49:53 PM 41.4419 -94.6389 89° East 435 501 39,000  Level Minneapolis Center
Fri 09:50:54 PM 41.4406 -94.4783 91° East 434 499 39,000  Level Minneapolis Center
Fri 09:51:56 PM 41.4394 -94.3158 90° East 439 505 39,000  Level Minneapolis Center
Fri 09:52:57 PM 41.4383 -94.1683 91° East 432 497 39,000  Level Minneapolis Center
Fri 09:53:59 PM 41.4383 -93.9761 90° East 433 498 39,000  Level Minneapolis Center
Fri 09:55:00 PM 41.4364 -93.8161 91° East 434 499 39,000  Level Minneapolis Center
Fri 09:56:02 PM 41.4358 -93.6558 90° East 434 499 39,000  Level Minneapolis Center
Fri 09:57:03 PM 41.4442 -93.4961 86° East 433 498 39,000  Level Minneapolis Center
Fri 09:58:05 PM 41.4522 -93.3353 86° East 436 502 39,000  Level Minneapolis Center
Fri 09:59:18 PM 41.4606 -93.1436 87° East 434 499 39,000  Level Minneapolis Center
Fri 10:00:24 PM 41.4700 -92.9511 86° East 436 502 39,000  Level Minneapolis Center
Fri 10:01:25 PM 41.4761 -92.7883 87° East 438 504 39,000  Level Minneapolis Center
Fri 10:02:26 PM 41.4825 -92.6278 87° East 437 503 39,000  Level Minneapolis Center
Fri 10:03:40 PM 41.4900 -92.4656 86° East 438 504 39,000  Level Minneapolis Center
Fri 10:04:41 PM 41.4981 -92.2375 87° East 440 506 39,000  Level Minneapolis Center
Fri 10:05:40 PM 41.5025 -92.0842 88° East 443 510 39,000  Level Chicago Center
Fri 10:06:42 PM 41.5086 -91.9242 87° East 441 507 39,000  Level Chicago Center
Fri 10:07:43 PM 41.5139 -91.7664 87° East 434 499 39,000  Level Chicago Center
Fri 10:08:45 PM 41.5175 -91.6097 88° East 429 494 39,000  Level Chicago Center
Fri 10:09:46 PM 41.4883 -91.4317 102° East 417 480 39,000  Level Chicago Center
Fri 10:10:48 PM 41.4742 -91.3033 98° East 417 480 39,000  Level Chicago Center
Fri 10:11:49 PM 41.4542 -91.1231 98° East 412 474 39,000  Level Chicago Center
Fri 10:12:50 PM 41.4375 -90.9722 98° East 411 473 39,000  Level Chicago Center
Fri 10:13:52 PM 41.4194 -90.8250 99° East 406 467 39,000  Level Chicago Center
Fri 10:14:53 PM 41.4025 -90.6742 98° East 409 471 39,000  Level Chicago Center
Fri 10:15:55 PM 41.3842 -90.5261 99° East 406 467 39,000  Level Chicago Center
Fri 10:16:56 PM 41.3664 -90.3753 99° East 410 472 39,000  Level Chicago Center
Fri 10:17:58 PM 41.3489 -90.2253 99° East 410 472 39,000  Level Chicago Center
Fri 10:18:59 PM 41.3306 -90.0728 99° East 415 478 39,000  Level Chicago Center
Fri 10:20:01 PM 41.3092 -89.9064 100° East 417 480 39,000  Level Chicago Center
Fri 10:21:02 PM 41.2922 -89.7661 99° East 418 481 39,000  Level Chicago Center
Fri 10:22:03 PM 41.2739 -89.6128 99° East 419 482 39,000  Level Chicago Center
Fri 10:23:05 PM 41.2494 -89.4267 100° East 423 487 39,000  Level Chicago Center
Fri 10:24:06 PM 41.2300 -89.2758 100° East 417 480 39,000  Level Chicago Center
Fri 10:25:08 PM 41.2086 -89.1158 100° East 418 481 39,000  Level Chicago Center
Fri 10:26:09 PM 41.1892 -88.9653 100° East 417 480 39,000  Level Chicago Center
Fri 10:27:10 PM 41.1683 -88.8156 100° East 418 481 39,000  Level Chicago Center
Fri 10:28:12 PM 41.1472 -88.6672 101° East 415 478 39,000  Level Chicago Center
Fri 10:29:13 PM 41.1281 -88.5211 100° East 410 472 39,000  Level Chicago Center
Fri 10:30:15 PM 41.1075 -88.3725 100° East 411 473 39,000  Level Chicago Center
Fri 10:31:16 PM 41.0833 -88.1942 100° East 414 476 39,000  Level Chicago Center
Fri 10:32:18 PM 41.0631 -88.0467 100° East 413 475 39,000  Level Chicago Center
Fri 10:33:19 PM 41.0419 -87.8981 101° East 415 478 39,000  Level Chicago Center
Fri 10:34:20 PM 41.0200 -87.7497 101° East 413 475 39,000  Level Chicago Center
Fri 10:35:22 PM 40.9986 -87.6017 101° East 414 476 39,000  Level Chicago Center
Fri 10:36:23 PM 40.9781 -87.4522 100° East 416 479 39,000  Level Chicago Center
Fri 10:37:24 PM 40.9558 -87.3033 101° East 417 480 39,000  Level Chicago Center
Fri 10:38:26 PM 40.9281 -87.1236 102° East 419 482 39,000  Level Chicago Center
Fri 10:39:27 PM 40.9053 -86.9728 101° East 423 487 39,000  Level Chicago Center
Fri 10:40:29 PM 40.8828 -86.8219 101° East 423 487 39,000  Level Chicago Center
Fri 10:41:30 PM 40.8575 -86.6578 101° East 424 488 39,000  Level Chicago Center
Fri 10:42:31 PM 40.8339 -86.5069 102° East 424 488 39,000  Level Chicago Center
Fri 10:43:32 PM 40.8094 -86.3553 102° East 424 488 39,000  Level Chicago Center
Fri 10:44:34 PM 40.7869 -86.2044 101° East 422 486 39,000  Level Chicago Center
Fri 10:45:35 PM 40.7622 -86.0539 102° East 423 487 39,000  Level Chicago Center
Fri 10:46:36 PM 40.7375 -85.9025 102° East 424 488 39,000  Level Chicago Center
Fri 10:47:37 PM 40.7136 -85.7486 102° East 430 495 39,000  Level Chicago Center
Fri 10:48:39 PM 40.6883 -85.5992 103° East 423 487 39,000  Level Chicago Center
Fri 10:49:40 PM 40.6608 -85.4258 102° East 425 489 39,000  Level Chicago Center
Fri 10:50:41 PM 40.6358 -85.2756 102° East 421 484 39,000  Level Chicago Center
Fri 10:51:42 PM 40.6100 -85.1233 103° East 425 489 39,000  Level Chicago Center
Fri 10:52:36 PM 40.5842 -84.9697 102° East 425 489 39,000  Level Indianapolis Center
Fri 10:53:37 PM 40.5594 -84.8256 103° East 427 491 39,000  Level Indianapolis Center
Fri 10:54:38 PM 40.5336 -84.6711 102° East 429 494 39,000 -49 Level Indianapolis Center
Fri 10:55:39 PM 40.5064 -84.5178 103° East 428 493 38,900  Descending Indianapolis Center
Fri 10:56:40 PM 40.4786 -84.3617 103° East 434 499 39,000 49 Climbing Indianapolis Center
Fri 10:57:41 PM 40.4508 -84.2072 103° East 431 496 39,000  Level Indianapolis Center
Fri 10:58:42 PM 40.4236 -84.0525 103° East 431 496 39,000 -49 Level Indianapolis Center
Fri 10:59:43 PM 40.3956 -83.8964 103° East 433 498 38,900  Descending Indianapolis Center
Fri 11:00:44 PM 40.3672 -83.7414 103° East 434 499 39,000  Climbing Indianapolis Center
Fri 11:01:45 PM 40.3392 -83.5839 103° East 436 502 38,900  Descending Indianapolis Center
Fri 11:02:47 PM 40.3097 -83.4264 104° East 438 504 39,000  Climbing Indianapolis Center
Fri 11:03:48 PM 40.2808 -83.2694 104° East 436 502 38,900 -49 Descending Indianapolis Center
Fri 11:04:49 PM 40.2511 -83.1139 104° East 435 501 38,900 49 Level Indianapolis Center
Fri 11:05:50 PM 40.2222 -82.9589 104° East 433 498 39,000 49 Climbing Indianapolis Center
Fri 11:06:51 PM 40.1925 -82.8000 104° East 441 507 39,000  Level Indianapolis Center
Fri 11:07:52 PM 40.1619 -82.6425 104° East 442 509 39,000  Level Indianapolis Center
Fri 11:08:53 PM 40.1439 -82.4828 98° East 442 509 39,000  Level Indianapolis Center
Fri 11:09:54 PM 40.1336 -82.3186 95° East 447 514 39,000  Level Indianapolis Center
Fri 11:10:55 PM 40.1217 -82.1558 95° East 446 513 39,000  Level Indianapolis Center
Fri 11:11:56 PM 40.1089 -81.9919 96° East 448 516 39,000  Level Indianapolis Center
Fri 11:12:57 PM 40.0967 -81.8272 95° East 451 519 39,000  Level Indianapolis Center
Fri 11:13:58 PM 40.0836 -81.6647 96° East 450 518 39,000  Level Indianapolis Center
Fri 11:14:59 PM 40.0706 -81.4994 96° East 453 521 39,000  Level Indianapolis Center
Fri 11:16:00 PM 40.0583 -81.3356 96° East 452 520 39,000  Level Indianapolis Center
Fri 11:17:01 PM 40.0381 -81.1442 98° East 453 521 39,000  Level Indianapolis Center
Fri 11:18:02 PM 40.0083 -80.9822 103° East 457 526 39,000  Level Indianapolis Center
Fri 11:19:03 PM 39.9794 -80.8222 103° East 454 522 39,000  Level Indianapolis Center
Fri 11:20:04 PM 39.9511 -80.6589 103° East 458 527 39,000  Level Indianapolis Center
Fri 11:21:04 PM 39.9264 -80.5192 103° East 458 527 39,000  Level Indianapolis Center
Fri 11:22:05 PM 39.8972 -80.3572 103° East 459 528 39,000  Level Indianapolis Center
Fri 11:23:06 PM 39.8683 -80.1944 103° East 458 527 39,000  Level Indianapolis Center
Fri 11:24:13 PM 39.8369 -80.0125 103° East 447 514 39,000 -143 Level Washington Center
Fri 11:25:12 PM 39.8072 -79.8486 103° East 447 514 38,700 -655 Descending Washington Center
Fri 11:26:12 PM 39.7753 -79.6872 104° East 457 526 37,700 -2,017 Descending Washington Center
Fri 11:27:11 PM 39.7456 -79.5236 103° East 457 526 34,700 -3,450 Descending Washington Center
Fri 11:28:12 PM 39.7133 -79.3519 104° East 463 533 30,800 -3,800 Descending Washington Center
Fri 11:29:11 PM 39.6831 -79.1858 103° East 474 545 27,100 -2,876 Descending Washington Center
Fri 11:30:13 PM 39.6503 -79.0253 105° East 474 545 25,000 -2,500 Descending Washington Center
Fri 11:31:11 PM 39.6092 -78.8508 107° East 463 533 22,100 -2,017 Descending Washington Center
Fri 11:32:12 PM 39.5758 -78.6958 106° East 457 526 21,000 -541 Descending Washington Center
Fri 11:33:13 PM 39.5419 -78.5464 106° East 443 510 21,000 -353 Level Washington Center
Fri 11:34:11 PM 39.5103 -78.3969 105° East 443 510 20,300 -1,576 Descending Washington Center
Fri 11:35:11 PM 39.4758 -78.2533 107° East 438 504 17,900 -2,579 Descending Washington Center
Fri 11:36:12 PM 39.4456 -78.1097 105° East 420 483 15,100 -1,438 Descending Washington Center
Fri 11:37:12 PM 39.4108 -77.9742 108° East 410 472 15,000 -50 Descending Washington Center
Fri 11:38:12 PM 39.3886 -77.8392 102° East 397 457 15,000  Level Washington Center
Fri 11:39:11 PM 39.4036 -77.7000 82° East 379 436 15,000 -1,513 Level Washington Center
Fri 11:40:11 PM 39.4225 -77.5608 80° East 384 442 12,000 -2,262 Descending Washington Center
Fri 11:41:13 PM 39.4183 -77.4317 92° East 374 430 10,400 -1,263 Descending Washington Center
Fri 11:41:46 PM 39.4000 -77.3667 110° East 316 364 10,000 -839 Descending Potomac TRACON
Fri 11:42:46 PM 39.3667 -77.2667 113° Southeast 274 315 9,100 -650 Descending Potomac TRACON
Fri 11:43:46 PM 39.3333 -77.2000 123° Southeast 239 275 8,700 -793 Descending Potomac TRACON
Fri 11:44:47 PM 39.3000 -77.1167 117° Southeast 231 266 7,500 -1,240 Descending Potomac TRACON
Fri 11:45:47 PM 39.2833 -77.0500 108° East 217 250 6,200 -1,150 Descending Potomac TRACON
Fri 11:46:47 PM 39.2500 -76.9833 123° Southeast 196 226 5,200 -1,150 Descending Potomac TRACON
Fri 11:47:47 PM 39.2333 -76.9167 108° East 191 220 3,900 -1,250 Descending Potomac TRACON
Fri 11:48:47 PM 39.2167 -76.8667 113° Southeast 180 207 2,700 -950 Descending Potomac TRACON
Fri 11:49:47 PM 39.1833 -76.8000 123° Southeast 174 200 2,000 -700 Descending Potomac TRACON

Login

Don't have an account? Register now (free) for customized features, flight alerts, and more!